createdAt,value
2023-01-07T00:04:11.025Z,10.50
2023-01-07T00:09:16.406Z,10.70
2023-01-07T00:14:20.209Z,9.80
2023-01-07T00:19:24.315Z,9.00
2023-01-07T00:24:27.975Z,10.90
2023-01-07T00:29:31.524Z,9.70
2023-01-07T00:34:35.143Z,11.20
2023-01-07T00:39:41.918Z,9.50
2023-01-07T00:44:45.749Z,10.40
2023-01-07T00:49:49.290Z,10.70
2023-01-07T00:54:52.933Z,9.80
2023-01-07T00:59:56.507Z,10.20
2023-01-07T01:05:00.301Z,11.10
2023-01-07T01:10:03.880Z,10.30
2023-01-07T01:15:07.531Z,11.20
2023-01-07T01:20:11.074Z,11.10
2023-01-07T01:25:14.647Z,9.40
2023-01-07T01:35:21.935Z,8.50
2023-01-07T01:40:25.478Z,10.40
2023-01-07T01:45:29.071Z,8.00
2023-01-07T01:50:32.691Z,8.70
2023-01-07T01:55:36.296Z,11.30
2023-01-07T02:00:39.845Z,9.00
2023-01-07T02:05:43.416Z,8.80
2023-01-07T02:10:48.156Z,10.30
2023-01-07T02:15:51.832Z,9.60
2023-01-07T02:20:55.415Z,8.80
2023-01-07T02:25:58.985Z,9.70
2023-01-07T02:31:02.552Z,9.60
2023-01-07T02:36:06.161Z,7.50
2023-01-07T02:41:09.700Z,9.50
2023-01-07T02:46:13.342Z,8.20
2023-01-07T02:51:16.985Z,8.20
2023-01-07T02:56:21.278Z,7.40
2023-01-07T03:01:25.026Z,8.70
2023-01-07T03:11:32.607Z,9.40
2023-01-07T03:16:36.204Z,8.10
2023-01-07T03:21:39.871Z,7.80
2023-01-07T03:26:43.494Z,7.40
2023-01-07T03:31:47.073Z,10.00
2023-01-07T03:36:53.064Z,7.50
2023-01-07T03:42:14.165Z,8.70
2023-01-07T03:47:18.018Z,8.30
2023-01-07T03:52:21.620Z,9.60
2023-01-07T03:57:25.290Z,10.50
2023-01-07T04:02:30.842Z,9.80
2023-01-07T04:07:34.408Z,9.30
2023-01-07T04:12:37.960Z,9.80
2023-01-07T04:17:41.493Z,8.70
2023-01-07T04:22:45.003Z,10.50
2023-01-07T04:27:48.554Z,10.10
2023-01-07T04:32:52.641Z,10.20
2023-01-07T04:37:56.250Z,10.10
2023-01-07T04:42:59.823Z,10.60
2023-01-07T04:48:03.371Z,13.20
2023-01-07T04:53:07.183Z,10.40
2023-01-07T04:58:10.718Z,13.10
2023-01-07T05:03:14.268Z,11.60
2023-01-07T05:08:17.831Z,10.60
2023-01-07T05:13:21.373Z,12.10
2023-01-07T05:18:24.951Z,12.40
2023-01-07T05:23:29.626Z,14.70
2023-01-07T05:28:33.190Z,13.50
2023-01-07T05:33:36.808Z,11.90
2023-01-07T05:38:40.367Z,15.20
2023-01-07T05:43:45.957Z,12.70
2023-01-07T05:48:49.522Z,12.30
2023-01-07T05:53:53.076Z,15.80
2023-01-07T05:58:56.622Z,14.00
2023-01-07T06:04:00.296Z,11.70
2023-01-07T06:09:03.854Z,12.10
2023-01-07T06:14:08.611Z,12.40
2023-01-07T06:19:12.278Z,13.00
2023-01-07T06:24:16.915Z,15.90
2023-01-07T06:29:20.461Z,16.00
2023-01-07T06:34:25.056Z,15.70
2023-01-07T06:39:28.790Z,13.60
2023-01-07T06:44:32.412Z,11.80
2023-01-07T06:49:35.946Z,12.20
2023-01-07T06:54:39.487Z,12.80
2023-01-07T06:59:44.085Z,13.90
2023-01-07T07:04:47.865Z,13.60
2023-01-07T07:09:51.820Z,14.50
2023-01-07T07:19:58.930Z,14.60
2023-01-07T07:25:03.530Z,14.40
2023-01-07T07:30:08.189Z,13.20
2023-01-07T07:35:11.863Z,14.00
2023-01-07T07:40:15.410Z,13.80
2023-01-07T07:45:19.966Z,13.90
2023-01-07T07:50:23.493Z,17.70
2023-01-07T07:55:27.252Z,14.70
2023-01-07T08:00:30.969Z,14.10
2023-01-07T08:05:34.702Z,17.20
2023-01-07T08:10:38.505Z,13.70
2023-01-07T08:15:42.287Z,18.90
2023-01-07T08:20:48.001Z,16.30
2023-01-07T08:25:51.624Z,16.20
2023-01-07T08:30:55.293Z,19.00
2023-01-07T08:35:58.964Z,19.00
2023-01-07T08:41:02.564Z,22.20
2023-01-07T08:46:06.319Z,23.30
2023-01-07T08:51:09.917Z,23.10
2023-01-07T08:56:13.491Z,22.50
2023-01-07T09:01:17.165Z,22.10
2023-01-07T09:06:20.919Z,20.60
2023-01-07T09:11:24.671Z,25.50
2023-01-07T09:16:28.288Z,26.00
2023-01-07T09:21:32.011Z,34.50
2023-01-07T09:26:35.613Z,26.70
2023-01-07T09:31:39.261Z,24.30
2023-01-07T09:36:44.036Z,24.10
2023-01-07T09:41:47.638Z,23.40
2023-01-07T09:46:51.320Z,22.20
2023-01-07T09:51:54.876Z,22.80
2023-01-07T09:56:58.519Z,24.50
2023-01-07T10:02:02.097Z,22.10
2023-01-07T10:07:07.838Z,20.20
2023-01-07T10:12:11.399Z,22.10
2023-01-07T10:17:14.956Z,20.30
2023-01-07T10:24:16.049Z,24.80
2023-01-07T10:29:19.635Z,22.30
2023-01-07T10:34:23.176Z,23.50
2023-01-07T10:39:26.743Z,19.70
2023-01-07T10:44:30.430Z,21.40
2023-01-07T10:49:34.119Z,23.80
2023-01-07T10:54:38.287Z,19.90
2023-01-07T10:59:41.841Z,20.50
2023-01-07T11:04:45.497Z,19.10
2023-01-07T11:09:49.395Z,22.10
2023-01-07T11:14:52.988Z,21.90
2023-01-07T11:19:56.795Z,16.70
2023-01-07T11:25:00.329Z,20.10
2023-01-07T11:30:04.144Z,17.40
2023-01-07T11:35:07.720Z,19.50
2023-01-07T11:40:11.265Z,18.40
2023-01-07T11:45:14.979Z,16.20
2023-01-07T11:50:18.603Z,18.10
2023-01-07T11:55:22.173Z,16.00
2023-01-07T12:00:25.724Z,16.50
2023-01-07T12:05:30.276Z,17.20
2023-01-07T12:10:33.947Z,17.90
2023-01-07T12:15:37.638Z,16.00
2023-01-07T12:20:41.168Z,17.80
2023-01-07T12:25:45.474Z,14.60
2023-01-07T12:30:51.015Z,16.20
2023-01-07T12:35:54.645Z,15.80
2023-01-07T12:40:58.184Z,13.70
2023-01-07T12:46:01.746Z,13.30
2023-01-07T12:51:05.301Z,11.80
2023-01-07T12:56:08.837Z,13.90
2023-01-07T13:01:12.549Z,12.10
2023-01-07T13:06:16.148Z,13.40
2023-01-07T13:11:20.402Z,11.60
2023-01-07T13:16:24.036Z,14.50
2023-01-07T13:21:27.608Z,12.40
2023-01-07T13:26:31.960Z,13.10
2023-01-07T13:31:35.597Z,11.80
2023-01-07T13:36:39.210Z,12.70
2023-01-07T13:41:42.842Z,12.70
2023-01-07T13:46:46.479Z,12.70
2023-01-07T13:51:50.255Z,10.80
2023-01-07T13:56:53.866Z,11.70
2023-01-07T14:01:57.485Z,10.30
2023-01-07T14:07:01.125Z,10.80
2023-01-07T14:12:04.691Z,15.70
2023-01-07T14:17:08.254Z,10.50
2023-01-07T14:22:11.777Z,11.10
2023-01-07T14:27:15.297Z,8.90
2023-01-07T14:32:18.900Z,10.10
2023-01-07T14:37:22.653Z,10.70
2023-01-07T14:42:26.320Z,9.50
2023-01-07T14:47:29.881Z,9.90
2023-01-07T14:52:33.406Z,8.80
2023-01-07T14:57:36.988Z,8.00
2023-01-07T15:02:40.700Z,11.10
2023-01-07T15:07:44.379Z,11.00
2023-01-07T15:13:05.863Z,10.10
2023-01-07T15:18:09.513Z,10.60
2023-01-07T15:23:13.202Z,9.90
2023-01-07T15:28:16.884Z,9.30
2023-01-07T15:33:20.608Z,11.80
2023-01-07T15:38:24.293Z,9.50
2023-01-07T15:43:28.524Z,9.20
2023-01-07T15:48:32.081Z,12.20
2023-01-07T15:53:35.619Z,8.70
2023-01-07T15:58:39.871Z,10.90
2023-01-07T16:03:45.781Z,9.60
2023-01-07T16:08:49.293Z,10.70
2023-01-07T16:13:52.870Z,11.40
2023-01-07T16:18:56.598Z,16.00
2023-01-07T16:24:01.287Z,12.00
2023-01-07T16:33:12.863Z,14.20
2023-01-07T16:38:16.649Z,12.80
2023-01-07T16:43:20.484Z,37.90
2023-01-07T16:48:24.272Z,41.00
2023-01-07T16:53:28.136Z,35.40
2023-01-07T16:58:31.720Z,48.90
2023-01-07T17:03:35.501Z,44.60
2023-01-07T17:08:39.526Z,39.70
2023-01-07T17:13:44.119Z,31.60
2023-01-07T17:18:47.675Z,30.70
2023-01-07T17:23:51.598Z,35.60
2023-01-07T17:28:55.195Z,39.10
2023-01-07T17:33:58.924Z,39.00
2023-01-07T17:39:02.594Z,38.50
2023-01-07T17:44:06.174Z,35.80
2023-01-07T17:49:09.801Z,33.80
2023-01-07T17:54:13.338Z,43.80
2023-01-07T17:59:17.247Z,39.60
2023-01-07T18:04:21.486Z,43.40
2023-01-07T18:09:25.218Z,35.50
2023-01-07T18:14:28.841Z,40.50
2023-01-07T18:19:32.877Z,49.00
2023-01-07T18:24:36.438Z,50.00
2023-01-07T18:29:40.129Z,63.40
2023-01-07T18:34:43.851Z,52.20
2023-01-07T18:39:47.396Z,78.30
2023-01-07T18:44:51.115Z,65.20
2023-01-07T18:49:54.717Z,77.20
2023-01-07T18:54:58.283Z,72.50
2023-01-07T19:00:01.856Z,77.40
2023-01-07T19:05:05.508Z,74.60
2023-01-07T19:10:09.062Z,78.20
2023-01-07T19:15:12.606Z,70.50
2023-01-07T19:20:16.733Z,70.20
2023-01-07T19:25:20.350Z,68.60
2023-01-07T19:30:24.028Z,70.80
2023-01-07T19:35:28.122Z,68.80
2023-01-07T19:45:35.475Z,73.70
2023-01-07T19:50:39.440Z,66.20
2023-01-07T19:55:43.039Z,73.60
2023-01-07T20:00:46.659Z,71.40
2023-01-07T20:05:50.380Z,82.70
2023-01-07T20:10:54.009Z,81.50
2023-01-07T20:15:57.549Z,73.20
2023-01-07T20:21:01.315Z,70.00
2023-01-07T20:26:06.774Z,68.10
2023-01-07T20:31:10.926Z,67.60
2023-01-07T20:36:14.474Z,71.40
2023-01-07T20:41:18.307Z,73.00
2023-01-07T20:51:25.831Z,68.90
2023-01-07T20:56:32.499Z,76.70
2023-01-07T21:01:36.780Z,80.60
2023-01-07T21:06:41.375Z,95.80
2023-01-07T21:11:48.024Z,74.70
2023-01-07T21:16:51.671Z,66.50
2023-01-07T21:21:55.466Z,58.30
2023-01-07T21:29:13.005Z,50.60
2023-01-07T21:34:21.484Z,50.40
2023-01-07T21:39:30.057Z,45.20
2023-01-07T21:44:38.938Z,72.80
2023-01-07T21:49:49.599Z,48.00
2023-01-07T21:54:58.158Z,47.40
2023-01-07T22:00:08.482Z,43.80
2023-01-07T22:05:16.817Z,38.90
2023-01-07T22:10:25.311Z,48.90
2023-01-07T22:15:33.780Z,40.50
2023-01-07T22:20:42.074Z,48.00
2023-01-07T22:25:50.464Z,45.80
2023-01-07T22:31:00.763Z,44.20
2023-01-07T22:36:11.597Z,43.80
2023-01-07T22:41:20.379Z,44.30
2023-01-07T22:46:33.783Z,41.40
2023-01-07T22:51:47.860Z,41.60
2023-01-07T22:56:56.388Z,42.40
2023-01-07T23:02:04.997Z,42.40
2023-01-07T23:07:13.344Z,41.60
2023-01-07T23:12:27.556Z,39.80
2023-01-07T23:17:35.835Z,43.50
2023-01-07T23:22:44.151Z,42.50
2023-01-07T23:27:54.076Z,42.50
2023-01-07T23:33:02.586Z,41.60
2023-01-07T23:38:11.121Z,41.10
2023-01-07T23:43:19.531Z,41.70
2023-01-07T23:48:28.030Z,41.90
2023-01-07T23:53:36.731Z,40.00
2023-01-07T23:58:45.174Z,40.90
